createdAt,value
2017-12-05T00:00:18.390Z,1020.33
2017-12-05T00:01:28.091Z,1020.37
2017-12-05T00:02:38.039Z,1020.32
2017-12-05T00:03:47.991Z,1020.27
2017-12-05T00:04:57.677Z,1020.36
2017-12-05T00:06:07.635Z,1020.27
2017-12-05T00:07:17.328Z,1020.31
2017-12-05T00:08:27.015Z,1020.33
2017-12-05T00:09:36.957Z,1020.32
2017-12-05T00:10:46.910Z,1020.23
2017-12-05T00:11:56.596Z,1020.25
2017-12-05T00:13:06.598Z,1020.28
2017-12-05T00:14:16.319Z,1020.17
2017-12-05T00:15:25.747Z,1020.23
2017-12-05T00:16:35.697Z,1020.17
2017-12-05T00:17:45.701Z,1020.14
2017-12-05T00:18:55.391Z,1020.17
2017-12-05T00:20:05.081Z,1020.17
2017-12-05T00:21:14.783Z,1020.16
2017-12-05T00:22:24.476Z,1020.14
2017-12-05T00:23:34.420Z,1020.1
2017-12-05T00:24:44.096Z,1020.16
2017-12-05T00:25:53.782Z,1020.18
2017-12-05T00:27:03.465Z,1020.07
2017-12-05T00:28:13.150Z,1020.07
2017-12-05T00:29:22.590Z,1020.09
2017-12-05T00:30:32.288Z,1020.12
2017-12-05T00:31:42.236Z,1020.09
2017-12-05T00:32:51.921Z,1020.04
2017-12-05T00:34:01.615Z,1020.11
2017-12-05T00:35:11.308Z,1020.17
2017-12-05T00:36:21.318Z,1020.22
2017-12-05T00:37:31.328Z,1020.16
2017-12-05T00:38:41.279Z,1020.12
2017-12-05T00:39:50.707Z,1020.02
2017-12-05T00:41:00.406Z,1020.09
2017-12-05T00:42:09.840Z,1020.13
2017-12-05T00:43:19.533Z,1020.12
2017-12-05T00:44:29.520Z,1020.04
2017-12-05T00:45:38.685Z,1020.12
2017-12-05T00:46:48.108Z,1020.14
2017-12-05T00:47:57.537Z,1020.06
2017-12-05T00:49:07.491Z,1020.03
2017-12-05T00:50:16.943Z,1020.1
2017-12-05T00:51:26.370Z,1020.09
2017-12-05T00:52:36.321Z,1020.07
2017-12-05T00:53:46.278Z,1020.01
2017-12-05T00:54:55.969Z,1019.99
2017-12-05T00:56:05.916Z,1020.02
2017-12-05T00:57:15.601Z,1020.14
2017-12-05T00:58:25.023Z,1020.01
2017-12-05T00:59:34.712Z,1020.04
2017-12-05T01:00:44.716Z,1020.04
2017-12-05T01:01:54.145Z,1020
2017-12-05T01:03:03.834Z,1020.02
2017-12-05T01:04:13.257Z,1020.04
2017-12-05T01:05:22.946Z,1020.02
2017-12-05T01:06:32.370Z,1020.01
2017-12-05T01:07:42.321Z,1020.04
2017-12-05T01:08:52.286Z,1020.01
2017-12-05T01:10:02.236Z,1019.95
2017-12-05T01:11:12.190Z,1020.11
2017-12-05T01:12:21.882Z,1020.02
2017-12-05T01:13:31.303Z,1020.03
2017-12-05T01:14:40.732Z,1020.04
2017-12-05T01:15:50.975Z,1020.02
2017-12-05T01:17:00.656Z,1020.05
2017-12-05T01:18:10.590Z,1020.04
2017-12-05T01:19:20.517Z,1020.01
2017-12-05T01:20:30.203Z,1020.01
2017-12-05T01:21:39.895Z,1020.07
2017-12-05T01:22:49.598Z,1020.03
2017-12-05T01:23:59.035Z,1020.05
2017-12-05T01:25:08.737Z,1020.01
2017-12-05T01:26:18.436Z,1020.03
2017-12-05T01:27:28.122Z,1020.05
2017-12-05T01:28:37.805Z,1020.1
2017-12-05T01:29:47.498Z,1020.12
2017-12-05T01:30:57.443Z,1020.04
2017-12-05T01:32:07.393Z,1020.09
2017-12-05T01:33:17.076Z,1020.14
2017-12-05T01:34:26.770Z,1020.03
2017-12-05T01:35:36.727Z,1020.08
2017-12-05T01:36:46.412Z,1020.1
2017-12-05T01:37:56.355Z,1020.01
2017-12-05T01:39:06.053Z,1020.04
2017-12-05T01:40:15.999Z,1020.06
2017-12-05T01:41:25.710Z,1020.05
2017-12-05T01:42:35.661Z,1020.02
2017-12-05T01:43:45.342Z,1020
2017-12-05T01:44:55.294Z,1020.02
2017-12-05T01:46:04.971Z,1020.04
2017-12-05T01:47:14.425Z,1020.06
2017-12-05T01:48:24.117Z,1020.04
2017-12-05T01:49:33.813Z,1020.04
2017-12-05T01:50:43.754Z,1020.05
2017-12-05T01:51:53.454Z,1020.04
2017-12-05T01:53:03.401Z,1020.02
2017-12-05T01:54:13.088Z,1020.03
2017-12-05T01:55:22.780Z,1019.99
2017-12-05T01:56:32.721Z,1020.2
2017-12-05T01:57:42.679Z,1020.04
2017-12-05T01:58:52.363Z,1020.04
2017-12-05T02:00:02.291Z,1020
2017-12-05T02:01:12.235Z,1020.03
2017-12-05T02:02:21.944Z,1020.04
2017-12-05T02:03:31.376Z,1020
2017-12-05T02:04:41.322Z,1020.02
2017-12-05T02:05:51.259Z,1019.99
2017-12-05T02:07:01.206Z,1019.94
2017-12-05T02:08:11.151Z,1019.96
2017-12-05T02:09:20.572Z,1019.96
2017-12-05T02:10:30.781Z,1019.96
2017-12-05T02:11:40.737Z,1019.96
2017-12-05T02:12:50.680Z,1019.92
2017-12-05T02:14:00.633Z,1019.99
2017-12-05T02:15:10.330Z,1019.95
2017-12-05T02:16:20.017Z,1019.87
2017-12-05T02:17:29.959Z,1019.84
2017-12-05T02:18:39.634Z,1019.82
2017-12-05T02:19:49.060Z,1019.77
2017-12-05T02:20:58.742Z,1019.76
2017-12-05T02:22:08.687Z,1019.72
2017-12-05T02:23:18.430Z,1019.76
2017-12-05T02:24:28.308Z,1019.71
2017-12-05T02:25:38.298Z,1019.67
2017-12-05T02:26:48.240Z,1019.65
2017-12-05T02:27:57.667Z,1019.68
2017-12-05T02:29:07.349Z,1019.64
2017-12-05T02:30:16.785Z,1019.65
2017-12-05T02:31:26.727Z,1019.65
2017-12-05T02:32:36.671Z,1019.64
2017-12-05T02:33:46.626Z,1019.64
2017-12-05T02:34:56.321Z,1019.68
2017-12-05T02:36:06.308Z,1019.68
2017-12-05T02:37:16.003Z,1019.65
2017-12-05T02:38:25.693Z,1019.68
2017-12-05T02:39:35.405Z,1019.71
2017-12-05T02:40:45.363Z,1019.68
2017-12-05T02:41:55.305Z,1019.61
2017-12-05T02:43:05.234Z,1019.67
2017-12-05T02:44:14.922Z,1019.64
2017-12-05T02:45:24.874Z,1019.58
2017-12-05T02:46:34.589Z,1019.57
2017-12-05T02:47:44.286Z,1019.6
2017-12-05T02:48:54.229Z,1019.6
2017-12-05T02:50:03.920Z,1019.56
2017-12-05T02:51:13.369Z,1019.54
2017-12-05T02:52:23.331Z,1019.54
2017-12-05T02:53:33.019Z,1019.51
2017-12-05T02:54:42.689Z,1019.51
2017-12-05T02:55:52.115Z,1019.55
2017-12-05T02:57:01.804Z,1019.53
2017-12-05T02:58:11.760Z,1019.51
2017-12-05T02:59:21.698Z,1019.53
2017-12-05T03:00:31.643Z,1019.49
2017-12-05T03:01:41.589Z,1019.53
2017-12-05T03:02:51.266Z,1019.48
2017-12-05T03:04:00.700Z,1019.5
2017-12-05T03:05:10.136Z,1019.61
2017-12-05T03:06:20.074Z,1019.51
2017-12-05T03:07:29.748Z,1019.55
2017-12-05T03:08:39.696Z,1019.53
2017-12-05T03:09:49.378Z,1019.5
2017-12-05T03:10:59.053Z,1019.51
2017-12-05T03:12:08.486Z,1019.48
2017-12-05T03:13:18.429Z,1019.51
2017-12-05T03:14:28.133Z,1019.53
2017-12-05T03:15:38.074Z,1019.43
2017-12-05T03:16:47.767Z,1019.45
2017-12-05T03:17:57.509Z,1019.43
2017-12-05T03:19:07.195Z,1019.46
2017-12-05T03:20:17.141Z,1019.38
2017-12-05T03:21:27.374Z,1019.47
2017-12-05T03:22:36.802Z,1019.46
2017-12-05T03:23:46.226Z,1019.48
2017-12-05T03:24:56.167Z,1019.49
2017-12-05T03:26:05.854Z,1019.52
2017-12-05T03:27:15.534Z,1019.44
2017-12-05T03:28:24.970Z,1019.49
2017-12-05T03:29:34.649Z,1019.46
2017-12-05T03:30:44.337Z,1019.47
2017-12-05T03:31:54.294Z,1019.49
2017-12-05T03:33:04.237Z,1019.53
2017-12-05T03:34:14.178Z,1019.52
2017-12-05T03:35:23.630Z,1019.52
2017-12-05T03:36:33.589Z,1019.56
2017-12-05T03:37:43.544Z,1019.52
2017-12-05T03:38:53.220Z,1019.49
2017-12-05T03:40:02.650Z,1019.48
2017-12-05T03:41:12.609Z,1019.47
2017-12-05T03:42:22.549Z,1019.48
2017-12-05T03:43:32.241Z,1019.38
2017-12-05T03:44:41.671Z,1019.4
2017-12-05T03:45:51.620Z,1019.43
2017-12-05T03:47:01.324Z,1019.43
2017-12-05T03:48:11.555Z,1019.41
2017-12-05T03:49:20.958Z,1019.39
2017-12-05T03:50:30.387Z,1019.38
2017-12-05T03:51:40.366Z,1019.41
2017-12-05T03:52:49.792Z,1019.39
2017-12-05T03:53:59.491Z,1019.43
2017-12-05T03:55:08.663Z,1019.44
2017-12-05T03:56:18.350Z,1019.43
2017-12-05T03:57:28.052Z,1019.42
2017-12-05T03:58:37.763Z,1019.42
2017-12-05T03:59:47.455Z,1019.39
2017-12-05T04:00:56.889Z,1019.36
2017-12-05T04:02:06.830Z,1019.31
2017-12-05T04:03:16.520Z,1019.31
2017-12-05T04:04:26.203Z,1019.24
2017-12-05T04:05:36.142Z,1019.28
2017-12-05T04:06:45.860Z,1019.3
2017-12-05T04:07:55.539Z,1019.32
2017-12-05T04:09:05.481Z,1019.32
2017-12-05T04:10:14.910Z,1019.3
2017-12-05T04:11:24.851Z,1019.3
2017-12-05T04:12:34.275Z,1019.3
2017-12-05T04:13:43.704Z,1019.33
2017-12-05T04:14:53.393Z,1019.29
2017-12-05T04:16:03.346Z,1019.26
2017-12-05T04:17:13.033Z,1019.22
2017-12-05T04:18:22.464Z,1019.31
2017-12-05T04:19:32.403Z,1019.3
2017-12-05T04:20:42.348Z,1019.25
2017-12-05T04:21:52.316Z,1019.24
2017-12-05T04:23:01.744Z,1019.25
2017-12-05T04:24:11.682Z,1019.27
2017-12-05T04:25:21.622Z,1019.21
2017-12-05T04:26:31.302Z,1019.32
2017-12-05T04:27:40.983Z,1019.26
2017-12-05T04:28:50.417Z,1019.24
2017-12-05T04:30:00.354Z,1019.19
2017-12-05T04:31:10.043Z,1019.23
2017-12-05T04:32:19.736Z,1019.23
2017-12-05T04:33:29.432Z,1019.13
2017-12-05T04:34:39.361Z,1019.22
2017-12-05T04:35:49.043Z,1019.14
2017-12-05T04:36:58.209Z,1019.17
2017-12-05T04:38:07.897Z,1019.16
2017-12-05T04:39:17.890Z,1019.1
2017-12-05T04:40:27.840Z,1019.17
2017-12-05T04:41:37.270Z,1019.12
2017-12-05T04:42:47.224Z,1019.14
2017-12-05T04:43:57.166Z,1019.17
2017-12-05T04:45:06.852Z,1019.12
2017-12-05T04:46:16.539Z,1019.14
2017-12-05T04:47:26.218Z,1019.13
2017-12-05T04:48:35.900Z,1019.11
2017-12-05T04:49:45.580Z,1019.1
2017-12-05T04:50:55.263Z,1019.14
2017-12-05T04:52:04.950Z,1019.13
2017-12-05T04:53:14.896Z,1019.13
2017-12-05T04:54:24.601Z,1019.15
2017-12-05T04:55:34.285Z,1019.13
2017-12-05T04:56:43.986Z,1019.15
2017-12-05T04:57:53.931Z,1019.13
2017-12-05T04:59:03.099Z,1019.15
2017-12-05T05:00:12.533Z,1019.11
2017-12-05T05:01:22.472Z,1019.14
2017-12-05T05:02:32.154Z,1019.16
2017-12-05T05:03:41.847Z,1019.11
2017-12-05T05:04:51.806Z,1019.13
2017-12-05T05:06:01.802Z,1019.18
2017-12-05T05:07:11.262Z,1019.16
2017-12-05T05:08:21.221Z,1019.21
2017-12-05T05:09:30.911Z,1019.18
2017-12-05T05:10:40.853Z,1019.18
2017-12-05T05:11:50.272Z,1019.2
2017-12-05T05:12:59.701Z,1019.2
2017-12-05T05:14:09.638Z,1019.16
2017-12-05T05:15:19.073Z,1019.27
2017-12-05T05:16:28.238Z,1019.17
2017-12-05T05:17:37.667Z,1019.23
2017-12-05T05:18:47.604Z,1019.13
2017-12-05T05:19:57.028Z,1019.16
2017-12-05T05:21:07.198Z,1019.13
2017-12-05T05:22:16.899Z,1019.25
2017-12-05T05:23:26.586Z,1019.25
2017-12-05T05:24:36.548Z,1019.16
2017-12-05T05:25:46.492Z,1019.17
2017-12-05T05:26:56.172Z,1019.17
2017-12-05T05:28:06.149Z,1019.15
2017-12-05T05:29:15.833Z,1019.17
2017-12-05T05:30:25.586Z,1019.18
2017-12-05T05:31:35.224Z,1019.14
2017-12-05T05:32:44.929Z,1019.22
2017-12-05T05:33:54.116Z,1019.33
2017-12-05T05:35:03.806Z,1019.28
2017-12-05T05:36:13.493Z,1019.28
2017-12-05T05:37:23.443Z,1019.23
2017-12-05T05:38:33.122Z,1019.26
2017-12-05T05:39:43.066Z,1019.26
2017-12-05T05:40:52.767Z,1019.34
2017-12-05T05:42:02.723Z,1019.29
2017-12-05T05:43:12.420Z,1019.35
2017-12-05T05:44:21.861Z,1019.31
2017-12-05T05:45:31.565Z,1019.39
2017-12-05T05:46:40.996Z,1019.31
2017-12-05T05:47:50.945Z,1019.33
2017-12-05T05:49:00.137Z,1019.28
2017-12-05T05:50:09.828Z,1019.24
2017-12-05T05:51:19.806Z,1019.39
2017-12-05T05:52:29.763Z,1019.32
2017-12-05T05:53:39.708Z,1019.34
2017-12-05T05:54:49.402Z,1019.42
2017-12-05T05:55:59.363Z,1019.45
2017-12-05T05:57:09.453Z,1019.41
2017-12-05T05:58:19.399Z,1019.41
2017-12-05T05:59:29.082Z,1019.48
2017-12-05T06:00:38.553Z,1019.43
2017-12-05T06:01:48.270Z,1019.45
2017-12-05T06:02:58.208Z,1019.57
2017-12-05T06:04:07.898Z,1019.47
2017-12-05T06:05:17.586Z,1019.5
2017-12-05T06:06:27.269Z,1019.49
2017-12-05T06:07:36.955Z,1019.52
2017-12-05T06:08:46.925Z,1019.53
2017-12-05T06:09:56.887Z,1019.54
2017-12-05T06:11:06.845Z,1019.55
2017-12-05T06:12:16.795Z,1019.57
2017-12-05T06:13:26.737Z,1019.61
2017-12-05T06:14:35.920Z,1019.55
2017-12-05T06:15:45.868Z,1019.67
2017-12-05T06:16:55.858Z,1019.56
2017-12-05T06:18:05.585Z,1019.68
2017-12-05T06:19:15.529Z,1019.66
2017-12-05T06:20:25.235Z,1019.72
2017-12-05T06:21:34.923Z,1019.7
2017-12-05T06:22:44.618Z,1019.67
2017-12-05T06:23:54.306Z,1019.7
2017-12-05T06:25:03.733Z,1019.74
2017-12-05T06:26:13.436Z,1019.65
2017-12-05T06:27:22.867Z,1019.65
2017-12-05T06:28:32.299Z,1019.71
2017-12-05T06:29:41.997Z,1019.76
2017-12-05T06:30:51.689Z,1019.67
2017-12-05T06:32:01.644Z,1019.67
2017-12-05T06:33:11.335Z,1019.73
2017-12-05T06:34:21.039Z,1019.67
2017-12-05T06:35:30.498Z,1019.91
2017-12-05T06:36:40.194Z,1019.76
2017-12-05T06:37:49.882Z,1020.01
2017-12-05T06:38:59.318Z,1019.76
2017-12-05T06:40:09.286Z,1019.73
2017-12-05T06:41:18.450Z,1019.79
2017-12-05T06:42:28.158Z,1019.83
2017-12-05T06:43:38.113Z,1019.8
2017-12-05T06:44:47.806Z,1019.92
2017-12-05T06:45:57.748Z,1019.8
2017-12-05T06:47:07.691Z,1019.93
2017-12-05T06:48:17.653Z,1019.83
2017-12-05T06:49:27.333Z,1020.08
2017-12-05T06:50:37.274Z,1019.88
2017-12-05T06:51:46.704Z,1019.82
2017-12-05T06:52:56.647Z,1019.88
2017-12-05T06:54:06.613Z,1019.91
2017-12-05T06:55:16.310Z,1019.88
2017-12-05T06:56:26.269Z,1019.97
2017-12-05T06:57:35.705Z,1019.87
2017-12-05T06:58:45.651Z,1019.96
2017-12-05T06:59:55.603Z,1019.92
2017-12-05T07:01:05.295Z,1019.91
2017-12-05T07:02:14.980Z,1019.93
2017-12-05T07:03:24.667Z,1019.95
2017-12-05T07:04:34.348Z,1019.86
2017-12-05T07:05:43.771Z,1019.94
2017-12-05T07:06:53.715Z,1019.96
2017-12-05T07:08:03.664Z,1019.94
2017-12-05T07:09:13.097Z,1020.02
2017-12-05T07:10:22.787Z,1020.13
2017-12-05T07:11:32.732Z,1019.92
2017-12-05T07:12:41.910Z,1019.98
2017-12-05T07:13:51.597Z,1019.99
2017-12-05T07:15:01.038Z,1019.93
2017-12-05T07:16:10.729Z,1019.98
2017-12-05T07:17:20.692Z,1020.05
2017-12-05T07:18:30.637Z,1020.05
2017-12-05T07:19:40.324Z,1020.22
2017-12-05T07:20:49.766Z,1020.17
2017-12-05T07:21:59.711Z,1020.21
2017-12-05T07:23:09.405Z,1020.24
2017-12-05T07:24:18.831Z,1020.11
2017-12-05T07:25:28.792Z,1020.18
2017-12-05T07:26:38.531Z,1020.14
2017-12-05T07:27:48.209Z,1020.16
2017-12-05T07:28:57.912Z,1020.24
2017-12-05T07:30:07.606Z,1020.3
2017-12-05T07:31:17.332Z,1020.17
2017-12-05T07:32:27.311Z,1020.3
2017-12-05T07:33:36.783Z,1020.26
2017-12-05T07:34:46.745Z,1020.15
2017-12-05T07:35:56.777Z,1020.26
2017-12-05T07:37:06.485Z,1020.22
2017-12-05T07:38:15.952Z,1020.26
2017-12-05T07:39:25.669Z,1020.23
2017-12-05T07:40:35.619Z,1020.23
2017-12-05T07:41:45.562Z,1020.35
2017-12-05T07:42:55.519Z,1020.33
2017-12-05T07:44:05.487Z,1020.31
2017-12-05T07:45:15.178Z,1020.29
2017-12-05T07:46:24.865Z,1020.42
2017-12-05T07:47:34.576Z,1020.32
2017-12-05T07:48:44.284Z,1020.35
2017-12-05T07:49:53.993Z,1020.43
2017-12-05T07:51:03.722Z,1020.32
2017-12-05T07:52:13.210Z,1020.31
2017-12-05T07:53:22.792Z,1020.44
2017-12-05T07:54:32.790Z,1020.35
2017-12-05T07:55:42.750Z,1020.51
2017-12-05T07:56:52.457Z,1020.41
2017-12-05T07:58:02.491Z,1020.33
2017-12-05T07:59:12.200Z,1020.4
2017-12-05T08:00:21.389Z,1020.53
2017-12-05T08:01:31.346Z,1020.53
2017-12-05T08:02:40.795Z,1020.4
2017-12-05T08:03:50.792Z,1020.48
2017-12-05T08:05:00.239Z,1020.49
2017-12-05T08:06:09.947Z,1020.45
2017-12-05T08:07:19.640Z,1020.45
2017-12-05T08:08:29.365Z,1020.59
2017-12-05T08:09:39.066Z,1020.5
2017-12-05T08:10:48.536Z,1020.44
2017-12-05T08:11:58.511Z,1020.58
2017-12-05T08:13:08.475Z,1020.57
2017-12-05T08:14:18.428Z,1020.61
2017-12-05T08:15:28.160Z,1020.51
2017-12-05T08:16:37.860Z,1020.47
2017-12-05T08:17:47.589Z,1020.51
2017-12-05T08:18:57.558Z,1020.65
2017-12-05T08:20:07.011Z,1020.53
2017-12-05T08:21:16.964Z,1020.64
2017-12-05T08:22:26.658Z,1020.64
2017-12-05T08:23:36.622Z,1020.59
2017-12-05T08:24:46.595Z,1020.5
2017-12-05T08:25:56.550Z,1020.57
2017-12-05T08:27:05.995Z,1020.53
2017-12-05T08:28:15.964Z,1020.59
2017-12-05T08:29:25.665Z,1020.62
2017-12-05T08:30:35.418Z,1020.63
2017-12-05T08:31:45.119Z,1020.55
2017-12-05T08:32:55.084Z,1020.61
2017-12-05T08:34:04.777Z,1020.62
2017-12-05T08:35:14.729Z,1020.58
2017-12-05T08:36:24.728Z,1020.71
2017-12-05T08:37:34.472Z,1020.65
2017-12-05T08:38:44.434Z,1020.73
2017-12-05T08:39:54.404Z,1020.83
2017-12-05T08:41:04.110Z,1020.79
2017-12-05T08:42:13.789Z,1020.77
2017-12-05T08:43:23.490Z,1020.8
2017-12-05T08:44:33.221Z,1020.83
2017-12-05T08:45:42.405Z,1020.92
2017-12-05T08:46:52.366Z,1020.76
2017-12-05T08:48:02.053Z,1020.84
2017-12-05T08:49:11.490Z,1020.78
2017-12-05T08:50:21.453Z,1020.95
2017-12-05T08:51:31.153Z,1020.81
2017-12-05T08:52:40.850Z,1020.88
2017-12-05T08:53:50.559Z,1020.83
2017-12-05T08:55:00.555Z,1020.79
2017-12-05T08:56:10.535Z,1020.84
2017-12-05T08:57:20.253Z,1020.93
2017-12-05T08:58:29.780Z,1020.86
2017-12-05T08:59:39.995Z,1020.8
2017-12-05T09:00:49.743Z,1020.84
2017-12-05T09:01:59.454Z,1020.84
2017-12-05T09:03:09.186Z,1020.9
2017-12-05T09:04:18.912Z,1020.87
2017-12-05T09:05:28.627Z,1020.8
2017-12-05T09:06:38.578Z,1020.99
2017-12-05T09:07:48.295Z,1020.84
2017-12-05T09:08:58.259Z,1020.84
2017-12-05T09:10:07.965Z,1020.77
2017-12-05T09:11:17.484Z,1020.95
2017-12-05T09:12:27.346Z,1020.92
2017-12-05T09:13:37.306Z,1020.87
2017-12-05T09:14:47.002Z,1020.97
2017-12-05T09:15:56.436Z,1020.85
2017-12-05T09:17:06.391Z,1020.91
2017-12-05T09:18:16.351Z,1020.92
2017-12-05T09:19:26.374Z,1020.89
2017-12-05T09:20:36.333Z,1020.95
2017-12-05T09:21:46.207Z,1020.92
2017-12-05T09:22:56.162Z,1020.85
2017-12-05T09:24:06.109Z,1020.83
2017-12-05T09:25:15.580Z,1020.88
2017-12-05T09:26:25.275Z,1020.96
2017-12-05T09:27:34.462Z,1020.91
2017-12-05T09:28:43.885Z,1020.94
2017-12-05T09:29:53.343Z,1020.82
2017-12-05T09:31:03.045Z,1021.15
2017-12-05T09:32:12.501Z,1020.9
2017-12-05T09:33:22.494Z,1020.91
2017-12-05T09:34:32.191Z,1021.07
2017-12-05T09:35:41.883Z,1020.89
2017-12-05T09:36:51.056Z,1020.95
2017-12-05T09:38:00.250Z,1020.93
2017-12-05T09:39:10.213Z,1020.96
2017-12-05T09:40:19.655Z,1020.92
2017-12-05T09:41:28.832Z,1020.99
2017-12-05T09:42:38.525Z,1021
2017-12-05T09:43:48.220Z,1021.04
2017-12-05T09:44:58.173Z,1020.96
2017-12-05T09:46:08.115Z,1020.96
2017-12-05T09:47:18.110Z,1020.88
2017-12-05T09:48:27.538Z,1020.93
2017-12-05T09:49:37.506Z,1020.97
2017-12-05T09:50:46.692Z,1021.02
2017-12-05T09:51:56.465Z,1020.98
2017-12-05T09:53:06.470Z,1020.77
2017-12-05T09:54:15.925Z,1020.93
2017-12-05T09:55:25.397Z,1020.86
2017-12-05T09:56:35.101Z,1020.84
2017-12-05T09:57:45.071Z,1020.74
2017-12-05T09:58:54.762Z,1020.68
2017-12-05T10:00:04.703Z,1020.67
2017-12-05T10:01:14.665Z,1020.69
2017-12-05T10:02:24.613Z,1020.62
2017-12-05T10:03:34.301Z,1020.7
2017-12-05T10:04:44.008Z,1020.62
2017-12-05T10:05:53.708Z,1020.82
2017-12-05T10:07:03.396Z,1020.68
2017-12-05T10:08:12.579Z,1020.74
2017-12-05T10:09:22.010Z,1020.7
2017-12-05T10:10:31.987Z,1020.73
2017-12-05T10:11:41.436Z,1020.66
2017-12-05T10:12:50.636Z,1020.58
2017-12-05T10:14:00.335Z,1020.67
2017-12-05T10:15:10.030Z,1020.81
2017-12-05T10:16:19.471Z,1020.64
2017-12-05T10:17:28.990Z,1020.64
2017-12-05T10:18:39.083Z,1020.59
2017-12-05T10:19:49.037Z,1020.5
2017-12-05T10:20:58.751Z,1020.74
2017-12-05T10:22:08.463Z,1020.71
2017-12-05T10:23:18.154Z,1020.55
2017-12-05T10:24:27.849Z,1020.72
2017-12-05T10:25:37.290Z,1020.63
2017-12-05T10:26:47.053Z,1020.69
2017-12-05T10:27:56.742Z,1020.69
2017-12-05T10:29:06.441Z,1020.73
2017-12-05T10:30:16.152Z,1020.72
2017-12-05T10:31:25.850Z,1020.6
2017-12-05T10:32:35.859Z,1020.62
2017-12-05T10:33:45.829Z,1020.69
2017-12-05T10:34:55.781Z,1020.82
2017-12-05T10:36:05.744Z,1020.67
2017-12-05T10:37:15.690Z,1020.59
2017-12-05T10:38:25.127Z,1020.57
2017-12-05T10:39:35.100Z,1020.71
2017-12-05T10:40:44.799Z,1020.65
2017-12-05T10:41:54.239Z,1020.68
2017-12-05T10:43:03.935Z,1020.62
2017-12-05T10:44:13.950Z,1020.56
2017-12-05T10:45:23.960Z,1020.64
2017-12-05T10:46:33.705Z,1020.81
2017-12-05T10:47:43.673Z,1020.8
2017-12-05T10:48:53.626Z,1020.74
2017-12-05T10:50:03.652Z,1020.73
2017-12-05T10:51:13.631Z,1020.6
2017-12-05T10:52:23.656Z,1020.74
2017-12-05T10:53:33.601Z,1020.73
2017-12-05T10:54:43.299Z,1020.69
2017-12-05T10:55:53.310Z,1020.7
2017-12-05T10:57:03.027Z,1020.78
2017-12-05T10:58:13.008Z,1020.77
2017-12-05T10:59:22.716Z,1020.72
2017-12-05T11:00:32.427Z,1020.71
2017-12-05T11:01:42.395Z,1020.93
2017-12-05T11:02:52.104Z,1020.78
2017-12-05T11:04:02.145Z,1020.7
2017-12-05T11:05:12.126Z,1020.64
2017-12-05T11:06:21.860Z,1020.64
2017-12-05T11:07:31.613Z,1020.51
2017-12-05T11:08:41.670Z,1020.64
2017-12-05T11:09:51.637Z,1020.64
2017-12-05T11:11:01.637Z,1020.68
2017-12-05T11:12:11.089Z,1020.63
2017-12-05T11:13:21.068Z,1020.64
2017-12-05T11:14:31.027Z,1020.62
2017-12-05T11:15:40.998Z,1020.58
2017-12-05T11:16:50.980Z,1020.64
2017-12-05T11:18:00.679Z,1020.62
2017-12-05T11:19:10.432Z,1020.68
2017-12-05T11:20:20.140Z,1020.79
2017-12-05T11:21:29.854Z,1020.74
2017-12-05T11:22:39.819Z,1020.7
2017-12-05T11:23:49.258Z,1020.42
2017-12-05T11:24:59.227Z,1020.65
2017-12-05T11:26:08.938Z,1020.61
2017-12-05T11:27:18.917Z,1020.67
2017-12-05T11:28:28.616Z,1020.91
2017-12-05T11:29:38.380Z,1020.64
2017-12-05T11:30:48.459Z,1020.45
2017-12-05T11:31:58.241Z,1020.51
2017-12-05T11:33:07.947Z,1020.5
2017-12-05T11:34:17.639Z,1020.91
2017-12-05T11:35:27.107Z,1020.68
2017-12-05T11:36:37.080Z,1020.7
2017-12-05T11:37:46.533Z,1020.71
2017-12-05T11:38:55.984Z,1020.68
2017-12-05T11:40:05.938Z,1020.65
2017-12-05T11:41:15.634Z,1020.81
2017-12-05T11:42:25.615Z,1020.87
2017-12-05T11:43:35.596Z,1020.79
2017-12-05T11:44:45.545Z,1020.62
2017-12-05T11:45:55.517Z,1020.72
2017-12-05T11:47:05.508Z,1020.74
2017-12-05T11:48:15.476Z,1020.67
2017-12-05T11:49:25.190Z,1020.74
2017-12-05T11:50:34.642Z,1020.7
2017-12-05T11:51:44.348Z,1020.94
2017-12-05T11:52:54.320Z,1020.6
2017-12-05T11:54:03.772Z,1020.68
2017-12-05T11:55:13.739Z,1020.57
2017-12-05T11:56:23.753Z,1020.57
2017-12-05T11:57:33.466Z,1020.6
2017-12-05T11:58:43.418Z,1020.72
2017-12-05T11:59:53.380Z,1020.58
2017-12-05T12:01:03.346Z,1020.56
2017-12-05T12:02:12.780Z,1020.54
2017-12-05T12:03:22.471Z,1020.56
2017-12-05T12:04:32.180Z,1020.56
2017-12-05T12:05:41.884Z,1020.57
2017-12-05T12:06:51.872Z,1020.61
2017-12-05T12:08:01.056Z,1020.56
2017-12-05T12:09:11.017Z,1020.68
2017-12-05T12:10:20.474Z,1020.61
2017-12-05T12:11:30.429Z,1020.66
2017-12-05T12:12:40.143Z,1020.6
2017-12-05T12:13:50.094Z,1020.72
2017-12-05T12:15:00.046Z,1020.65
2017-12-05T12:16:09.746Z,1020.66
2017-12-05T12:17:19.700Z,1020.52
2017-12-05T12:18:29.436Z,1020.49
2017-12-05T12:19:39.128Z,1020.51
2017-12-05T12:20:48.823Z,1020.7
2017-12-05T12:21:58.346Z,1020.46
2017-12-05T12:23:08.078Z,1020.67
2017-12-05T12:24:18.048Z,1020.51
2017-12-05T12:25:28.003Z,1020.53
2017-12-05T12:26:37.711Z,1020.53
2017-12-05T12:27:47.677Z,1020.46
2017-12-05T12:28:57.101Z,1020.42
2017-12-05T12:30:06.560Z,1020.57
2017-12-05T12:31:16.520Z,1020.48
2017-12-05T12:32:26.214Z,1020.51
2017-12-05T12:33:35.657Z,1020.5
2017-12-05T12:34:45.621Z,1020.72
2017-12-05T12:35:55.317Z,1020.55
2017-12-05T12:37:05.037Z,1020.51
2017-12-05T12:38:14.475Z,1020.41
2017-12-05T12:39:24.189Z,1020.53
2017-12-05T12:40:34.140Z,1020.54
2017-12-05T12:41:43.842Z,1020.51
2017-12-05T12:42:53.546Z,1020.51
2017-12-05T12:44:03.512Z,1020.61
2017-12-05T12:45:13.222Z,1020.51
2017-12-05T12:46:23.187Z,1020.53
2017-12-05T12:47:33.159Z,1020.51
2017-12-05T12:48:43.132Z,1020.47
2017-12-05T12:49:52.574Z,1020.63
2017-12-05T12:51:02.275Z,1020.59
2017-12-05T12:52:12.225Z,1020.62
2017-12-05T12:53:21.673Z,1020.48
2017-12-05T12:54:31.367Z,1020.55
2017-12-05T12:55:41.077Z,1020.53
2017-12-05T12:56:51.025Z,1020.55
2017-12-05T12:58:00.722Z,1020.65
2017-12-05T12:59:09.899Z,1020.66
2017-12-05T13:00:19.848Z,1020.57
2017-12-05T13:01:29.826Z,1020.43
2017-12-05T13:02:39.790Z,1020.48
2017-12-05T13:03:49.487Z,1020.46
2017-12-05T13:04:59.454Z,1020.43
2017-12-05T13:06:09.442Z,1020.4
2017-12-05T13:07:19.442Z,1020.42
2017-12-05T13:08:29.191Z,1020.46
2017-12-05T13:09:38.889Z,1020.5
2017-12-05T13:10:48.332Z,1020.43
2017-12-05T13:11:58.286Z,1020.43
2017-12-05T13:13:07.723Z,1020.53
2017-12-05T13:14:17.439Z,1020.45
2017-12-05T13:15:27.135Z,1020.45
2017-12-05T13:16:37.102Z,1020.45
2017-12-05T13:17:47.048Z,1020.41
2017-12-05T13:18:57.087Z,1020.64
2017-12-05T13:20:07.056Z,1020.54
2017-12-05T13:21:16.767Z,1020.45
2017-12-05T13:22:26.209Z,1020.47
2017-12-05T13:23:35.926Z,1020.36
2017-12-05T13:24:45.877Z,1020.33
2017-12-05T13:25:55.638Z,1020.35
2017-12-05T13:27:05.358Z,1020.3
2017-12-05T13:28:15.119Z,1020.22
2017-12-05T13:29:25.109Z,1020.31
2017-12-05T13:30:34.797Z,1020.29
2017-12-05T13:31:43.976Z,1020.3
2017-12-05T13:32:53.411Z,1020.32
2017-12-05T13:34:03.376Z,1020.39
2017-12-05T13:35:13.086Z,1020.24
2017-12-05T13:36:23.052Z,1020.46
2017-12-05T13:37:32.497Z,1020.34
2017-12-05T13:38:42.519Z,1020.42
2017-12-05T13:39:52.491Z,1020.29
2017-12-05T13:41:01.952Z,1020.32
2017-12-05T13:42:11.656Z,1020.57
2017-12-05T13:43:21.104Z,1020.33
2017-12-05T13:44:31.305Z,1020.34
2017-12-05T13:45:41.013Z,1020.29
2017-12-05T13:46:50.968Z,1020.39
2017-12-05T13:48:00.676Z,1020.42
2017-12-05T13:49:10.629Z,1020.31
2017-12-05T13:50:20.600Z,1020.38
2017-12-05T13:51:30.064Z,1020.41
2017-12-05T13:52:40.091Z,1020.42
2017-12-05T13:53:50.123Z,1020.4
2017-12-05T13:54:59.570Z,1020.32
2017-12-05T13:56:09.013Z,1020.48
2017-12-05T13:57:18.461Z,1020.46
2017-12-05T13:58:28.163Z,1020.44
2017-12-05T13:59:37.856Z,1020.41
2017-12-05T14:00:47.879Z,1020.47
2017-12-05T14:01:57.886Z,1020.52
2017-12-05T14:03:07.656Z,1020.39
2017-12-05T14:04:17.101Z,1020.62
2017-12-05T14:05:27.091Z,1020.59